sensor_id;sensor_type;location;lat;lon;timestamp;pressure;altitude;pressure_sealevel;temperature;humidity
75208;BME280;63795;55.684;37.864;2023-02-28T00:00:32;100355.38;;;-6.52;74.55
75208;BME280;63795;55.684;37.864;2023-02-28T00:05:33;100351.78;;;-6.52;74.95
75208;BME280;63795;55.684;37.864;2023-02-28T00:10:33;100341.06;;;-6.54;75.12
75208;BME280;63795;55.684;37.864;2023-02-28T00:15:34;100329.22;;;-6.59;75.04
75208;BME280;63795;55.684;37.864;2023-02-28T00:20:35;100336.66;;;-6.60;74.96
75208;BME280;63795;55.684;37.864;2023-02-28T00:25:35;100330.31;;;-6.60;74.61
75208;BME280;63795;55.684;37.864;2023-02-28T00:30:36;100321.81;;;-6.64;75.12
75208;BME280;63795;55.684;37.864;2023-02-28T00:35:36;100322.91;;;-6.65;74.89
75208;BME280;63795;55.684;37.864;2023-02-28T00:40:37;100314.66;;;-6.75;74.72
75208;BME280;63795;55.684;37.864;2023-02-28T00:45:37;100320.19;;;-6.70;74.48
75208;BME280;63795;55.684;37.864;2023-02-28T00:50:38;100303.09;;;-6.72;74.73
75208;BME280;63795;55.684;37.864;2023-02-28T00:55:38;100292.38;;;-6.73;74.77
75208;BME280;63795;55.684;37.864;2023-02-28T01:00:39;100275.31;;;-6.80;74.72
75208;BME280;63795;55.684;37.864;2023-02-28T01:05:39;100274.50;;;-6.86;74.39
75208;BME280;63795;55.684;37.864;2023-02-28T01:10:42;100276.19;;;-6.90;75.34
75208;BME280;63795;55.684;37.864;2023-02-28T01:15:49;100279.78;;;-6.95;75.73
75208;BME280;63795;55.684;37.864;2023-02-28T01:20:51;100250.31;;;-6.99;74.92
75208;BME280;63795;55.684;37.864;2023-02-28T01:25:52;100247.59;;;-7.04;74.80
75208;BME280;63795;55.684;37.864;2023-02-28T01:30:53;100237.16;;;-7.12;74.97
75208;BME280;63795;55.684;37.864;2023-02-28T01:36:01;100229.72;;;-7.17;74.60
75208;BME280;63795;55.684;37.864;2023-02-28T01:41:01;100222.88;;;-7.24;74.46
75208;BME280;63795;55.684;37.864;2023-02-28T01:46:02;100217.38;;;-7.29;74.50
75208;BME280;63795;55.684;37.864;2023-02-28T01:51:06;100198.41;;;-7.31;74.51
75208;BME280;63795;55.684;37.864;2023-02-28T01:56:12;100198.94;;;-7.29;74.54
75208;BME280;63795;55.684;37.864;2023-02-28T02:01:21;100189.09;;;-7.40;74.82
75208;BME280;63795;55.684;37.864;2023-02-28T02:06:25;100186.63;;;-7.46;74.84
75208;BME280;63795;55.684;37.864;2023-02-28T02:11:26;100187.50;;;-7.56;74.95
75208;BME280;63795;55.684;37.864;2023-02-28T02:27:23;100161.41;;;-7.73;75.14
75208;BME280;63795;55.684;37.864;2023-02-28T02:48:13;100136.16;;;-7.86;75.13
75208;BME280;63795;55.684;37.864;2023-02-28T02:53:18;100140.00;;;-7.87;75.45
75208;BME280;63795;55.684;37.864;2023-02-28T02:58:25;100132.84;;;-7.93;75.62
75208;BME280;63795;55.684;37.864;2023-02-28T03:03:28;100127.09;;;-7.96;75.48
75208;BME280;63795;55.684;37.864;2023-02-28T03:08:34;100111.69;;;-7.97;75.88
75208;BME280;63795;55.684;37.864;2023-02-28T03:29:33;100077.59;;;-8.01;75.79
75208;BME280;63795;55.684;37.864;2023-02-28T03:34:37;100075.69;;;-7.96;75.79
75208;BME280;63795;55.684;37.864;2023-02-28T03:39:43;100062.19;;;-7.97;76.15
75208;BME280;63795;55.684;37.864;2023-02-28T03:45:00;100047.63;;;-7.98;75.87
75208;BME280;63795;55.684;37.864;2023-02-28T03:50:10;100042.69;;;-7.96;76.21
75208;BME280;63795;55.684;37.864;2023-02-28T03:55:16;100036.88;;;-7.94;76.30
75208;BME280;63795;55.684;37.864;2023-02-28T04:00:21;100018.47;;;-7.94;76.02
75208;BME280;63795;55.684;37.864;2023-02-28T04:05:25;100010.19;;;-7.89;75.65
75208;BME280;63795;55.684;37.864;2023-02-28T04:10:26;100002.19;;;-7.85;75.28
75208;BME280;63795;55.684;37.864;2023-02-28T04:15:27;99986.22;;;-7.83;75.28
75208;BME280;63795;55.684;37.864;2023-02-28T04:20:27;99989.50;;;-7.81;75.26
75208;BME280;63795;55.684;37.864;2023-02-28T04:25:28;99986.50;;;-7.79;75.20
75208;BME280;63795;55.684;37.864;2023-02-28T04:30:28;99986.75;;;-7.76;74.80
75208;BME280;63795;55.684;37.864;2023-02-28T04:35:29;99987.81;;;-7.72;74.50
75208;BME280;63795;55.684;37.864;2023-02-28T04:40:30;99973.19;;;-7.67;74.16
75208;BME280;63795;55.684;37.864;2023-02-28T04:45:30;99966.53;;;-7.61;74.04
75208;BME280;63795;55.684;37.864;2023-02-28T04:50:32;99947.25;;;-7.56;73.58
75208;BME280;63795;55.684;37.864;2023-02-28T04:55:33;99946.66;;;-7.48;73.46
75208;BME280;63795;55.684;37.864;2023-02-28T05:00:33;99927.06;;;-7.42;73.14
75208;BME280;63795;55.684;37.864;2023-02-28T05:05:33;99920.13;;;-7.39;72.82
75208;BME280;63795;55.684;37.864;2023-02-28T05:10:34;99912.94;;;-7.35;72.03
75208;BME280;63795;55.684;37.864;2023-02-28T05:15:34;99892.53;;;-7.29;71.44
75208;BME280;63795;55.684;37.864;2023-02-28T05:20:35;99887.53;;;-7.22;71.78
75208;BME280;63795;55.684;37.864;2023-02-28T05:25:35;99863.28;;;-7.20;70.72
75208;BME280;63795;55.684;37.864;2023-02-28T05:30:36;99850.16;;;-7.05;70.29
75208;BME280;63795;55.684;37.864;2023-02-28T05:35:41;99822.50;;;-6.71;71.18
75208;BME280;63795;55.684;37.864;2023-02-28T05:40:42;99826.59;;;-6.07;69.86
75208;BME280;63795;55.684;37.864;2023-02-28T05:45:43;99805.91;;;-5.59;69.61
75208;BME280;63795;55.684;37.864;2023-02-28T05:50:43;99806.31;;;-5.20;67.70
75208;BME280;63795;55.684;37.864;2023-02-28T05:55:46;99795.16;;;-4.88;67.20
75208;BME280;63795;55.684;37.864;2023-02-28T06:00:46;99790.34;;;-4.69;62.95
75208;BME280;63795;55.684;37.864;2023-02-28T06:05:47;99794.53;;;-4.58;63.39
75208;BME280;63795;55.684;37.864;2023-02-28T06:10:48;99781.44;;;-4.16;62.30
75208;BME280;63795;55.684;37.864;2023-02-28T06:15:48;99768.84;;;-3.87;62.90
75208;BME280;63795;55.684;37.864;2023-02-28T06:20:53;99740.25;;;-4.54;59.91
75208;BME280;63795;55.684;37.864;2023-02-28T06:25:57;99733.34;;;-4.43;60.65
75208;BME280;63795;55.684;37.864;2023-02-28T06:30:58;99720.28;;;-3.62;59.10
75208;BME280;63795;55.684;37.864;2023-02-28T06:35:58;99724.00;;;-3.05;59.58
75208;BME280;63795;55.684;37.864;2023-02-28T06:41:00;99723.84;;;-3.00;56.59
75208;BME280;63795;55.684;37.864;2023-02-28T06:46:04;99707.28;;;-3.22;56.26
75208;BME280;63795;55.684;37.864;2023-02-28T06:51:19;99707.84;;;-3.73;58.60
75208;BME280;63795;55.684;37.864;2023-02-28T06:56:24;99682.81;;;-4.12;59.70
75208;BME280;63795;55.684;37.864;2023-02-28T07:01:24;99667.88;;;-4.34;60.18
75208;BME280;63795;55.684;37.864;2023-02-28T07:06:25;99655.22;;;-4.48;60.28
75208;BME280;63795;55.684;37.864;2023-02-28T07:11:27;99629.63;;;-4.54;61.31
75208;BME280;63795;55.684;37.864;2023-02-28T07:16:27;99628.22;;;-4.51;61.70
75208;BME280;63795;55.684;37.864;2023-02-28T07:21:28;99611.28;;;-4.50;61.87
75208;BME280;63795;55.684;37.864;2023-02-28T07:26:29;99592.88;;;-4.54;61.73
75208;BME280;63795;55.684;37.864;2023-02-28T07:31:29;99585.16;;;-4.44;62.59
75208;BME280;63795;55.684;37.864;2023-02-28T07:36:29;99582.44;;;-4.35;62.95
75208;BME280;63795;55.684;37.864;2023-02-28T07:41:30;99580.03;;;-4.28;63.35
75208;BME280;63795;55.684;37.864;2023-02-28T07:46:34;99562.50;;;-4.23;63.53
75208;BME280;63795;55.684;37.864;2023-02-28T07:51:35;99563.75;;;-4.29;63.63
75208;BME280;63795;55.684;37.864;2023-02-28T07:56:36;99565.81;;;-4.13;64.07
75208;BME280;63795;55.684;37.864;2023-02-28T08:01:36;99551.50;;;-4.06;64.79
75208;BME280;63795;55.684;37.864;2023-02-28T08:06:38;99554.69;;;-3.91;65.17
75208;BME280;63795;55.684;37.864;2023-02-28T08:11:38;99547.88;;;-3.76;65.39
75208;BME280;63795;55.684;37.864;2023-02-28T08:16:39;99533.75;;;-3.66;65.84
75208;BME280;63795;55.684;37.864;2023-02-28T08:21:39;99535.25;;;-3.52;65.84
75208;BME280;63795;55.684;37.864;2023-02-28T08:26:40;99515.22;;;-3.49;66.12
75208;BME280;63795;55.684;37.864;2023-02-28T08:31:41;99494.53;;;-3.34;65.87
75208;BME280;63795;55.684;37.864;2023-02-28T08:36:42;99458.69;;;-3.30;66.18
75208;BME280;63795;55.684;37.864;2023-02-28T08:41:45;99464.09;;;-3.17;65.88
75208;BME280;63795;55.684;37.864;2023-02-28T08:46:45;99470.59;;;-3.13;65.81
75208;BME280;63795;55.684;37.864;2023-02-28T08:51:45;99512.34;;;-3.01;65.38
75208;BME280;63795;55.684;37.864;2023-02-28T08:56:46;99506.97;;;-3.06;65.66
75208;BME280;63795;55.684;37.864;2023-02-28T09:01:47;99499.28;;;-2.92;65.95
75208;BME280;63795;55.684;37.864;2023-02-28T09:06:47;99505.66;;;-2.91;66.85
75208;BME280;63795;55.684;37.864;2023-02-28T09:11:48;99488.03;;;-3.04;67.49
75208;BME280;63795;55.684;37.864;2023-02-28T09:16:49;99458.84;;;-3.10;67.52
75208;BME280;63795;55.684;37.864;2023-02-28T09:21:50;99429.34;;;-3.14;67.21
75208;BME280;63795;55.684;37.864;2023-02-28T09:26:50;99433.91;;;-3.10;67.80
75208;BME280;63795;55.684;37.864;2023-02-28T09:31:51;99437.03;;;-3.11;67.55
75208;BME280;63795;55.684;37.864;2023-02-28T09:36:51;99423.66;;;-3.09;67.78
75208;BME280;63795;55.684;37.864;2023-02-28T09:41:55;99434.56;;;-3.04;67.84
75208;BME280;63795;55.684;37.864;2023-02-28T09:46:59;99445.00;;;-2.93;67.58
75208;BME280;63795;55.684;37.864;2023-02-28T09:52:05;99430.78;;;-2.83;68.52
75208;BME280;63795;55.684;37.864;2023-02-28T10:13:02;99396.31;;;-2.65;68.13
75208;BME280;63795;55.684;37.864;2023-02-28T10:18:11;99397.16;;;-2.73;68.59
75208;BME280;63795;55.684;37.864;2023-02-28T10:28:21;99365.50;;;-2.72;68.73
75208;BME280;63795;55.684;37.864;2023-02-28T10:33:31;99355.56;;;-2.73;69.12
75208;BME280;63795;55.684;37.864;2023-02-28T10:38:34;99350.97;;;-2.69;68.96
75208;BME280;63795;55.684;37.864;2023-02-28T10:43:36;99343.28;;;-2.63;69.06
75208;BME280;63795;55.684;37.864;2023-02-28T10:48:44;99333.00;;;-2.63;69.05
75208;BME280;63795;55.684;37.864;2023-02-28T10:53:51;99335.78;;;-2.63;69.09
75208;BME280;63795;55.684;37.864;2023-02-28T11:09:37;99315.47;;;-2.54;69.44
75208;BME280;63795;55.684;37.864;2023-02-28T11:14:47;99309.94;;;-2.54;69.55
75208;BME280;63795;55.684;37.864;2023-02-28T11:19:55;99298.66;;;-2.49;69.47
75208;BME280;63795;55.684;37.864;2023-02-28T11:25:00;99299.66;;;-2.54;70.15
75208;BME280;63795;55.684;37.864;2023-02-28T11:30:02;99295.41;;;-2.51;69.93
75208;BME280;63795;55.684;37.864;2023-02-28T11:40:18;99275.03;;;-2.55;70.76
75208;BME280;63795;55.684;37.864;2023-02-28T11:50:44;99269.63;;;-2.52;71.90
75208;BME280;63795;55.684;37.864;2023-02-28T11:56:18;99265.38;;;-2.49;71.97
75208;BME280;63795;55.684;37.864;2023-02-28T12:07:04;99260.31;;;-2.47;72.46
75208;BME280;63795;55.684;37.864;2023-02-28T12:27:48;99243.22;;;-2.58;74.62
75208;BME280;63795;55.684;37.864;2023-02-28T12:32:55;99244.72;;;-2.61;74.74
75208;BME280;63795;55.684;37.864;2023-02-28T12:43:21;99223.88;;;-2.67;75.65
75208;BME280;63795;55.684;37.864;2023-02-28T12:48:32;99205.22;;;-2.58;75.89
75208;BME280;63795;55.684;37.864;2023-02-28T12:54:01;99199.91;;;-2.50;75.59
75208;BME280;63795;55.684;37.864;2023-02-28T13:10:15;99156.09;;;-2.57;76.22
75208;BME280;63795;55.684;37.864;2023-02-28T13:15:25;99158.53;;;-2.55;76.19
75208;BME280;63795;55.684;37.864;2023-02-28T13:20:36;99135.38;;;-2.60;76.27
75208;BME280;63795;55.684;37.864;2023-02-28T13:46:32;99123.47;;;-2.39;76.00
75208;BME280;63795;55.684;37.864;2023-02-28T13:51:44;99119.53;;;-2.38;76.04
75208;BME280;63795;55.684;37.864;2023-02-28T14:07:33;99116.81;;;-2.26;76.42
75208;BME280;63795;55.684;37.864;2023-02-28T14:12:58;99118.44;;;-2.25;76.44
75208;BME280;63795;55.684;37.864;2023-02-28T14:18:01;99108.84;;;-2.28;76.21
75208;BME280;63795;55.684;37.864;2023-02-28T14:23:33;99112.81;;;-2.17;76.56
75208;BME280;63795;55.684;37.864;2023-02-28T14:33:44;99103.59;;;-2.09;76.54
75208;BME280;63795;55.684;37.864;2023-02-28T14:39:06;99093.75;;;-2.06;77.53
75208;BME280;63795;55.684;37.864;2023-02-28T14:54:22;99081.03;;;-2.07;78.37
75208;BME280;63795;55.684;37.864;2023-02-28T14:59:30;99062.75;;;-2.08;79.31
75208;BME280;63795;55.684;37.864;2023-02-28T15:04:31;99059.28;;;-2.05;78.81
75208;BME280;63795;55.684;37.864;2023-02-28T15:09:33;99073.41;;;-1.98;78.18
75208;BME280;63795;55.684;37.864;2023-02-28T15:14:34;99063.59;;;-1.96;78.72
75208;BME280;63795;55.684;37.864;2023-02-28T15:19:41;99065.69;;;-1.93;79.26
75208;BME280;63795;55.684;37.864;2023-02-28T15:24:47;99057.94;;;-1.87;79.56
75208;BME280;63795;55.684;37.864;2023-02-28T15:29:51;99059.56;;;-1.86;79.05
75208;BME280;63795;55.684;37.864;2023-02-28T15:34:54;99043.81;;;-1.82;78.98
75208;BME280;63795;55.684;37.864;2023-02-28T15:39:57;99042.44;;;-1.76;79.00
75208;BME280;63795;55.684;37.864;2023-02-28T15:44:58;99029.03;;;-1.74;79.25
75208;BME280;63795;55.684;37.864;2023-02-28T15:50:02;99044.31;;;-1.68;78.95
75208;BME280;63795;55.684;37.864;2023-02-28T15:55:20;99035.75;;;-1.63;79.01
75208;BME280;63795;55.684;37.864;2023-02-28T16:00:23;99039.47;;;-1.59;78.35
75208;BME280;63795;55.684;37.864;2023-02-28T16:05:26;99029.28;;;-1.55;78.45
75208;BME280;63795;55.684;37.864;2023-02-28T16:10:34;99017.44;;;-1.52;78.96
75208;BME280;63795;55.684;37.864;2023-02-28T16:15:38;99012.03;;;-1.48;78.84
75208;BME280;63795;55.684;37.864;2023-02-28T16:20:42;99004.03;;;-1.50;78.81
75208;BME280;63795;55.684;37.864;2023-02-28T16:25:45;98999.06;;;-1.44;79.34
75208;BME280;63795;55.684;37.864;2023-02-28T16:30:51;98993.97;;;-1.42;78.65
75208;BME280;63795;55.684;37.864;2023-02-28T16:35:52;99004.72;;;-1.41;79.41
75208;BME280;63795;55.684;37.864;2023-02-28T16:40:55;99022.78;;;-1.35;79.19
75208;BME280;63795;55.684;37.864;2023-02-28T16:45:58;99007.38;;;-1.32;79.61
75208;BME280;63795;55.684;37.864;2023-02-28T16:50:59;99004.34;;;-1.27;79.05
75208;BME280;63795;55.684;37.864;2023-02-28T16:56:00;99000.06;;;-1.25;79.62
75208;BME280;63795;55.684;37.864;2023-02-28T17:01:02;98994.50;;;-1.25;79.74
75208;BME280;63795;55.684;37.864;2023-02-28T17:06:04;98990.91;;;-1.25;80.44
75208;BME280;63795;55.684;37.864;2023-02-28T17:11:04;98977.59;;;-1.32;81.31
75208;BME280;63795;55.684;37.864;2023-02-28T17:16:05;98973.31;;;-1.29;81.15
75208;BME280;63795;55.684;37.864;2023-02-28T17:21:13;98974.13;;;-1.29;80.38
75208;BME280;63795;55.684;37.864;2023-02-28T17:26:15;98977.84;;;-1.37;82.13
75208;BME280;63795;55.684;37.864;2023-02-28T17:31:18;98976.22;;;-1.38;81.70
75208;BME280;63795;55.684;37.864;2023-02-28T17:36:24;98968.72;;;-1.49;82.09
75208;BME280;63795;55.684;37.864;2023-02-28T17:41:25;98988.97;;;-1.37;82.12
75208;BME280;63795;55.684;37.864;2023-02-28T17:46:30;99024.41;;;-1.46;79.60
75208;BME280;63795;55.684;37.864;2023-02-28T17:51:32;99025.22;;;-1.69;78.76
75208;BME280;63795;55.684;37.864;2023-02-28T17:56:32;99034.47;;;-1.78;78.88
75208;BME280;63795;55.684;37.864;2023-02-28T18:01:33;99044.97;;;-1.95;78.19
75208;BME280;63795;55.684;37.864;2023-02-28T18:06:36;99035.41;;;-2.18;78.65
75208;BME280;63795;55.684;37.864;2023-02-28T18:11:46;99052.66;;;-2.25;78.12
75208;BME280;63795;55.684;37.864;2023-02-28T18:16:48;99067.28;;;-2.36;78.67
75208;BME280;63795;55.684;37.864;2023-02-28T18:21:51;99039.72;;;-2.53;79.27
75208;BME280;63795;55.684;37.864;2023-02-28T18:26:52;99045.84;;;-2.48;79.70
75208;BME280;63795;55.684;37.864;2023-02-28T18:31:54;99048.97;;;-2.49;79.87
75208;BME280;63795;55.684;37.864;2023-02-28T18:36:55;99045.84;;;-2.48;79.69
75208;BME280;63795;55.684;37.864;2023-02-28T18:41:56;99063.78;;;-2.45;79.11
75208;BME280;63795;55.684;37.864;2023-02-28T18:46:57;99068.66;;;-2.42;78.87
75208;BME280;63795;55.684;37.864;2023-02-28T18:51:57;99058.38;;;-2.42;78.36
75208;BME280;63795;55.684;37.864;2023-02-28T18:56:57;99072.97;;;-2.33;78.13
75208;BME280;63795;55.684;37.864;2023-02-28T19:01:58;99066.84;;;-2.26;78.11
75208;BME280;63795;55.684;37.864;2023-02-28T19:06:58;99062.81;;;-2.29;76.85
75208;BME280;63795;55.684;37.864;2023-02-28T19:11:59;99076.69;;;-2.29;74.95
75208;BME280;63795;55.684;37.864;2023-02-28T19:17:00;99060.63;;;-2.23;73.39
75208;BME280;63795;55.684;37.864;2023-02-28T19:22:01;99058.22;;;-2.25;71.32
75208;BME280;63795;55.684;37.864;2023-02-28T19:27:01;99051.84;;;-2.25;72.35
75208;BME280;63795;55.684;37.864;2023-02-28T19:32:02;99051.50;;;-2.24;69.59
75208;BME280;63795;55.684;37.864;2023-02-28T19:37:03;99058.78;;;-2.19;67.59
75208;BME280;63795;55.684;37.864;2023-02-28T19:42:03;99053.72;;;-2.17;66.86
75208;BME280;63795;55.684;37.864;2023-02-28T19:47:04;99052.06;;;-2.18;63.65
75208;BME280;63795;55.684;37.864;2023-02-28T19:52:05;99052.53;;;-2.16;63.70
75208;BME280;63795;55.684;37.864;2023-02-28T19:57:06;99041.91;;;-2.14;63.94
75208;BME280;63795;55.684;37.864;2023-02-28T20:02:14;99048.41;;;-2.10;66.37
75208;BME280;63795;55.684;37.864;2023-02-28T20:07:19;99047.44;;;-2.26;63.65
75208;BME280;63795;55.684;37.864;2023-02-28T20:12:20;99047.53;;;-2.35;61.57
75208;BME280;63795;55.684;37.864;2023-02-28T20:17:22;99048.31;;;-2.34;62.74
75208;BME280;63795;55.684;37.864;2023-02-28T20:22:23;99041.38;;;-2.40;59.49
75208;BME280;63795;55.684;37.864;2023-02-28T20:27:24;99042.78;;;-2.34;62.44
75208;BME280;63795;55.684;37.864;2023-02-28T20:32:24;99036.56;;;-2.31;61.49
75208;BME280;63795;55.684;37.864;2023-02-28T20:37:26;99042.09;;;-2.31;61.87
75208;BME280;63795;55.684;37.864;2023-02-28T20:42:27;99035.16;;;-2.37;59.69
75208;BME280;63795;55.684;37.864;2023-02-28T20:47:27;99031.44;;;-2.41;61.82
75208;BME280;63795;55.684;37.864;2023-02-28T20:52:28;99035.78;;;-2.52;60.10
75208;BME280;63795;55.684;37.864;2023-02-28T20:57:29;99039.66;;;-2.66;60.36
75208;BME280;63795;55.684;37.864;2023-02-28T21:02:29;99052.47;;;-2.73;61.34
75208;BME280;63795;55.684;37.864;2023-02-28T21:07:30;99050.91;;;-2.83;60.63
75208;BME280;63795;55.684;37.864;2023-02-28T21:12:30;99045.44;;;-2.91;59.75
75208;BME280;63795;55.684;37.864;2023-02-28T21:17:31;99051.72;;;-3.03;59.56
75208;BME280;63795;55.684;37.864;2023-02-28T21:22:31;99058.16;;;-3.11;57.69
75208;BME280;63795;55.684;37.864;2023-02-28T21:27:32;99061.78;;;-3.19;59.57
75208;BME280;63795;55.684;37.864;2023-02-28T21:32:34;99050.94;;;-3.32;57.12
75208;BME280;63795;55.684;37.864;2023-02-28T21:37:37;99050.31;;;-3.38;55.58
75208;BME280;63795;55.684;37.864;2023-02-28T21:42:37;99059.97;;;-3.44;56.25
75208;BME280;63795;55.684;37.864;2023-02-28T21:47:38;99069.13;;;-3.52;56.32
75208;BME280;63795;55.684;37.864;2023-02-28T21:52:38;99053.19;;;-3.55;56.37
75208;BME280;63795;55.684;37.864;2023-02-28T21:57:38;99070.47;;;-3.58;56.63
75208;BME280;63795;55.684;37.864;2023-02-28T22:02:39;99052.75;;;-3.66;56.97
75208;BME280;63795;55.684;37.864;2023-02-28T22:07:40;99063.53;;;-3.73;56.38
75208;BME280;63795;55.684;37.864;2023-02-28T22:12:41;99070.56;;;-3.75;56.31
75208;BME280;63795;55.684;37.864;2023-02-28T22:17:41;99075.13;;;-3.79;55.84
75208;BME280;63795;55.684;37.864;2023-02-28T22:22:42;99066.84;;;-3.79;56.42
75208;BME280;63795;55.684;37.864;2023-02-28T22:27:42;99064.91;;;-3.87;56.44
75208;BME280;63795;55.684;37.864;2023-02-28T22:32:42;99065.06;;;-3.92;56.02
75208;BME280;63795;55.684;37.864;2023-02-28T22:37:43;99076.16;;;-3.92;56.47
75208;BME280;63795;55.684;37.864;2023-02-28T22:42:43;99058.56;;;-3.96;56.59
75208;BME280;63795;55.684;37.864;2023-02-28T22:47:47;99062.19;;;-4.04;56.26
75208;BME280;63795;55.684;37.864;2023-02-28T22:52:48;99068.53;;;-4.04;56.65
75208;BME280;63795;55.684;37.864;2023-02-28T22:57:48;99061.91;;;-4.11;55.88
75208;BME280;63795;55.684;37.864;2023-02-28T23:02:49;99058.66;;;-4.13;55.95
75208;BME280;63795;55.684;37.864;2023-02-28T23:07:49;99057.00;;;-4.14;55.93
75208;BME280;63795;55.684;37.864;2023-02-28T23:12:50;99067.44;;;-4.11;56.16
75208;BME280;63795;55.684;37.864;2023-02-28T23:17:50;99063.69;;;-4.15;56.13
75208;BME280;63795;55.684;37.864;2023-02-28T23:22:51;99054.28;;;-4.23;56.46
75208;BME280;63795;55.684;37.864;2023-02-28T23:27:51;99065.84;;;-4.29;56.22
75208;BME280;63795;55.684;37.864;2023-02-28T23:32:52;99062.75;;;-4.28;56.90
75208;BME280;63795;55.684;37.864;2023-02-28T23:37:55;99058.69;;;-4.31;56.48
75208;BME280;63795;55.684;37.864;2023-02-28T23:42:56;99061.63;;;-4.36;56.12
75208;BME280;63795;55.684;37.864;2023-02-28T23:47:57;99049.13;;;-4.42;55.60
75208;BME280;63795;55.684;37.864;2023-02-28T23:52:57;99054.00;;;-4.47;56.70
75208;BME280;63795;55.684;37.864;2023-02-28T23:57:58;99047.66;;;-4.48;56.21
